x

Ne St Martin - 330 Nm Ne St Martin Is (41044) Wave Buoy

8:50am - Mon 15th Sep 2014 All times are UTC.

  • Sig Wave height 6.6ft
  • Swell Direction
  • Peak Period 11s
  • Average Period 8s
  • Wind
    4mph, 9mph gusts
  • Sea Temp 85°f
  • Air Temp 83°f
  • Sea Pressure 1015mb

More Historic Weather Station data

Upgrade to MSW Pro to gain access to the past 30 days of data for over 8000 Wavebouys and Weather Stations around the globe.

Join Pro

Comparision Forecast

View Surf forecast
   
Mon 09/15 8:50am 6.5ft 11s 8s 4 9 mph 1015mb 85f 83f
7:50am 7ft 11s 8s 9 11 mph 1014.8mb 85f 83f
6:50am 6ft 9s 7s 7 9 mph 1014.9mb 85f 83f
5:50am 6ft 11s 7s 9 11 mph 1015.3mb 84f 83f
4:50am 6.5ft 11s 8s 7 9 mph 1015.7mb 84f 82f
3:50am 6ft 11s 7s 9 11 mph 1016mb 84f 83f
2:50am 6ft 11s 7s 11 13 mph 1016.3mb 84f 83f
1:50am 7ft 11s 8s 11 13 mph 1016.4mb 84f 84f
12:50am 7ft 11s 8s 9 13 mph 1016.2mb 84f 83f
Sun 09/14 11:50pm 6ft 11s 7s 11 13 mph 1015.8mb 85f 84f
10:50pm 6.5ft 11s 7s 11
mph
1015.4mb 85f 84f
9:50pm 7ft 12s 8s 9 11 mph 1015.2mb 85f 84f
8:50pm 6.5ft 11s 7s 7 9 mph 1015.2mb 85f 84f
7:50pm 6.5ft 11s 7s 9 11 mph 1015.2mb 85f 84f
6:50pm 6ft 11s 7s 9 11 mph 1015.3mb 85f 84f
5:50pm 6ft 11s 7s 11 13 mph 1015.7mb 85f 84f
4:50pm 5.5ft 12s 6s 9 11 mph 1016.1mb 85f 84f
3:50pm 5ft 12s 6s 11 13 mph 1016.7mb 85f 84f
2:50pm 5ft 8s 6s 11 13 mph 1017mb 85f 84f
1:50pm 4.5ft 8s 6s 11
mph
1017.2mb 84f 83f
12:50pm 4.5ft 7s 6s 11 13 mph 1017mb 84f 84f
11:50am 4.5ft 8s 5s 13 16 mph 1016.5mb 84f 83f
10:50am 4ft 8s 5s 16 20 mph 1016mb 84f 83f
9:50am 4.5ft 8s 5s 13 16 mph 1015.6mb 84f 83f
8:50am 4ft 8s 5s 16 18 mph 1015.1mb 84f 83f
7:50am 4ft 7s 5s 16 18 mph 1014.8mb 84f 83f
6:50am 3.5ft 6s 5s 11 13 mph 1015.3mb 84f 83f
5:50am 4.5ft 8s 5s 13 18 mph 1015.6mb 84f 83f
4:50am 4.5ft 8s 5s 16 18 mph 1016.1mb 84f 83f
2:50am 4ft 7s 5s 13 18 mph 1017mb 84f 83f
1:50am 4ft 7s 5s 13 16 mph 1017.3mb 84f 84f
12:50am 4.5ft 7s 5s 13 16 mph 1017.1mb 84f 84f
Sat 09/13 11:50pm 4.5ft 7s 5s 11 18 mph 1016.8mb 84f 83f
10:50pm 4ft 7s 5s 9 11 mph 1016.7mb 84f 83f
9:50pm 4ft 7s 5s 13 16 mph 1016.3mb 84f 84f
8:50pm 4ft 7s 5s 13 18 mph 1016.1mb 84f 84f
7:50pm 4.5ft 8s 5s 13 20 mph 1016mb 84f 84f
6:50pm 4ft 8s 5s 11 16 mph 1016.3mb 84f 84f
5:50pm 4ft 8s 5s 11 13 mph 1016.5mb 84f 84f
4:50pm 4.5ft 6s 5s 9 11 mph 1016.9mb 84f 83f
3:50pm 4ft 7s 5s 16 18 mph 1017.2mb 84f 83f
2:50pm 4ft 6s 5s 11 18 mph 1017.5mb 84f 83f
1:50pm 4.5ft 5s 5s 13 16 mph 1017.5mb 84f 84f
12:50pm 4.5ft 5s 5s 16 20 mph 1017.1mb 84f 84f
11:50am 4ft 6s 5s 16 20 mph 1016.7mb 84f 84f
10:50am 4ft 6s 5s 16 20 mph 1016mb 84f 84f
9:50am 3.5ft 8s 5s 16 20 mph 1015.5mb 84f 83f
8:50am 3.5ft 8s 5s 16 18 mph 1015.1mb 84f 83f
7:50am 3.5ft 8s 5s 16 18 mph 1015.1mb 84f 83f
6:50am 3.5ft 5s 5s 16 20 mph 1015.2mb 84f 83f
5:50am 3.5ft 7s 5s 16 20 mph 1015.7mb 84f 83f
4:50am 3.5ft 7s 5s 16 20 mph 1016.2mb 84f 84f
3:50am 3.5ft 8s 5s 16 20 mph 1016.5mb 84f 84f
2:50am 3.5ft 9s 5s 16 20 mph 1016.8mb 84f 84f
1:50am 3.5ft 6s 5s 16 20 mph 1016.9mb 84f 84f
12:50am 3.5ft 9s 5s 16 20 mph 1016.9mb 85f 84f
Fri 09/12 11:50pm 3.5ft 6s 5s 16 18 mph 1016.6mb 85f 84f
10:50pm 3.5ft 7s 5s 13 16 mph 1016.3mb 85f 84f
9:50pm 3.5ft 9s 5s 13 16 mph 1015.8mb 85f 84f
8:50pm 3.5ft 7s 5s 13
mph
1015.7mb 85f 84f
7:50pm 3.5ft 7s 5s 11 13 mph 1015.8mb 85f 84f
6:50pm 3.5ft 8s 5s 11 13 mph 1015.9mb 85f 84f
5:50pm 3ft 8s 5s 11 13 mph 1016.4mb 85f 84f
4:50pm 3ft 8s 5s 11 13 mph 1016.7mb 85f 84f
3:50pm 3ft 8s 5s 11
mph
1017.2mb 85f 84f
2:50pm 3ft 8s 5s 11 13 mph 1017.7mb 84f 84f
1:50pm 3ft 9s 5s 9 11 mph 1017.8mb 84f 84f
12:50pm 3ft 8s 5s 11 13 mph 1017.5mb 84f 84f
11:50am 3ft 8s 5s 11 13 mph 1017.2mb 84f 83f
10:50am 3ft 9s 5s 11 13 mph 1016.7mb 84f 83f
9:50am 3ft 8s 5s 11 13 mph 1016.1mb 84f 83f
8:50am 3ft 8s 5s 13 16 mph 1015.9mb 84f 83f
7:50am 2.5ft 9s 5s 11 16 mph 1015.6mb 84f 83f
6:50am 3ft 8s 5s 11 13 mph 1015.5mb 84f 83f
5:50am 3ft 7s 6s 9 11 mph 1016mb 84f 83f
4:50am 2.5ft 8s 6s 9 11 mph 1016.5mb 84f 83f
3:50am 2.5ft 7s 6s 11
mph
1016.8mb 84f 83f
2:50am 3ft 8s 6s 9 11 mph 1017.2mb 84f 83f
1:50am 3ft 7s 6s 9
mph
1017.2mb 84f 83f
12:50am 3ft 9s 6s 9
mph
1016.9mb 85f 83f
Thu 09/11 11:50pm 3ft 7s 6s 7
mph
1016.4mb 85f 83f
10:50pm 2.5ft 6s 6s 7
mph
1015.9mb 85f 83f
9:50pm 3ft 8s 6s 7
mph
1015.5mb 85f 83f
8:50pm 2.5ft 7s 6s 7
mph
1015.7mb 85f 84f
7:50pm 2.5ft 8s 6s 4 7 mph 1015.6mb 85f 83f
6:50pm 3ft 7s 6s 4 7 mph 1015.7mb 85f 84f
5:50pm 3ft 9s 6s 4 7 mph 1016.2mb 86f 84f
4:50pm 2.5ft 8s 5s 4 7 mph 1016.9mb 85f 83f
3:50pm 3ft 9s 5s 4 7 mph 1017.5mb 85f 83f
2:50pm 2.5ft 7s 5s 7 9 mph 1017.6mb 84f 83f
1:50pm 2.5ft 7s 5s 9 11 mph 1017.5mb 84f 83f
12:50pm 2.5ft 8s 5s 7 11 mph 1017.3mb 84f 83f
11:50am 2.5ft 7s 5s 9 11 mph 1016.6mb 84f 83f
10:50am 2.5ft 6s 5s 9 11 mph 1016.2mb 84f 83f